Evening Star — WDG5061 — position and weather

sailwx.info

Track history (hours):
 
Tides and Currents Weather Stations Pressure Air Temp Water Temp Dewpoint Dewpoint Depression Visibility Wind Speed Wind Dir Waves Ship Positions

Evening Star

Owner: Tug Evening Star Corp, Melville, NY. More information available from US FCC via Universal Licensing System and Coast Guard Vessel Documentation Center.

Last reported at 2017-Sep-18 06:37 UTC. Time now 2017-Sep-21 05:04 UTC.
Position N 43°21' W 070°10'.

Length 34 m; draft 5.5 m.

Type: Towing. MMSI: 366834000.

Date/timePositionNaut miles runAvg speedWind from/ knotsBaromVisibWave heightAir tempDewpointWater temp
2017-Sep-18 06:37N 43°21' W 070°10'19 9.0
2017-Sep-18 04:29N 43°03' W 070°19'5 9.7
2017-Sep-18 03:58N 42°59' W 070°22'510.0
2017-Sep-18 03:30N 42°54' W 070°23'5 9.9
2017-Sep-18 03:00N 42°49' W 070°25'5 9.7
2017-Sep-18 02:30N 42°45' W 070°28'5 9.4
2017-Sep-18 02:01N 42°40' W 070°29'5 9.7
2017-Sep-18 01:31N 42°35' W 070°30'5 9.7
2017-Sep-18 01:01N 42°31' W 070°30'5 9.7
2017-Sep-18 00:30N 42°26' W 070°30'5 9.7
2017-Sep-18 00:00N 42°21' W 070°31'5 9.8
2017-Sep-17 23:30N 42°16' W 070°31'102 6.8
2017-Sep-17 08:38N 41°12' W 072°17'1 9.7
2017-Sep-17 08:30N 41°11' W 072°18'5 9.9
2017-Sep-17 08:00N 41°10' W 072°24'5 9.9
2017-Sep-17 07:30N 41°08' W 072°30'5210.2
2017-Sep-17 02:25N 40°56' W 073°37'6 9.4
2017-Sep-17 01:49N 40°53' W 073°43'5 9.0
2017-Sep-17 01:19N 40°49' W 073°47'2 6.4
2017-Sep-17 01:00N 40°48' W 073°49'4 7.9
2017-Sep-17 00:30N 40°48' W 073°54'3 6.9
2017-Sep-17 00:00N 40°45' W 073°58'4 8.1
2017-Sep-16 23:31N 40°42' W 074°00'5 9.2
2017-Sep-16 22:59N 40°39' W 074°05'4 9.5
2017-Sep-16 22:30N 40°39' W 074°11'2 3.2
2017-Sep-16 21:59N 40°37' W 074°12'5 5.4
2017-Sep-16 21:05N 40°33' W 074°15'0 1.1
2017-Sep-16 20:59N 40°33' W 074°15'0 0.0
2017-Sep-16 20:22N 40°33' W 074°15'0 0.0
2017-Sep-16 20:01N 40°33' W 074°15'0 0.0
2017-Sep-16 19:30N 40°33' W 074°15'0 0.0
2017-Sep-16 19:00N 40°33' W 074°15'0 0.0
2017-Sep-16 13:56N 40°33' W 074°15'0 0.0
2017-Sep-16 00:35N 40°33' W 074°15'0 0.0
2017-Sep-15 20:26N 40°33' W 074°15'0 0.1
2017-Sep-15 19:58N 40°33' W 074°15'0 0.9
2017-Sep-15 19:29N 40°33' W 074°15'3 1.5
2017-Sep-15 17:22N 40°35' W 074°12'2 4.8
2017-Sep-15 17:00N 40°37' W 074°12'3 7.0
2017-Sep-15 16:30N 40°39' W 074°08'1 1.6
2017-Sep-15 16:00N 40°39' W 074°07'0 0.1
2017-Sep-15 15:30N 40°39' W 074°07'0 0.1
2017-Sep-15 15:01N 40°39' W 074°07'0 0.0
2017-Sep-15 14:30N 40°39' W 074°07'0 0.0
2017-Sep-15 14:00N 40°39' W 074°07'0 0.0
2017-Sep-15 13:30N 40°39' W 074°07'0 0.0
2017-Sep-15 13:01N 40°39' W 074°07'0 0.0
2017-Sep-15 12:30N 40°39' W 074°07'0 0.0
2017-Sep-15 12:01N 40°39' W 074°07'0 0.0
2017-Sep-15 11:31N 40°39' W 074°07'0 0.0
2017-Sep-15 11:00N 40°39' W 074°07'0 0.0
2017-Sep-15 10:30N 40°39' W 074°07'0 0.0
2017-Sep-15 10:00N 40°39' W 074°07'0 0.0
2017-Sep-15 09:30N 40°39' W 074°07'0 0.0
2017-Sep-15 09:00N 40°39' W 074°07'0 0.0
2017-Sep-15 08:30N 40°39' W 074°07'0 0.0
2017-Sep-15 08:00N 40°39' W 074°07'0 0.0
2017-Sep-15 07:30N 40°39' W 074°07'0 0.0
2017-Sep-15 07:00N 40°39' W 074°07'0 0.0
2017-Sep-15 06:31N 40°39' W 074°07'0 0.0
2017-Sep-15 06:00N 40°39' W 074°07'0 0.0
2017-Sep-15 05:30N 40°39' W 074°07'0 0.0
2017-Sep-15 05:01N 40°39' W 074°07'0 0.1
2017-Sep-15 04:30N 40°39' W 074°07'0 0.7
2017-Sep-15 04:00N 40°39' W 074°07'5 3.7
2017-Sep-15 02:32N 40°35' W 074°12'0 4.1
2017-Sep-15 02:29N 40°36' W 074°12'3 6.7
2017-Sep-15 02:00N 40°39' W 074°11'3 6.9
2017-Sep-15 01:31N 40°39' W 074°07'3 6.4
2017-Sep-15 01:00N 40°37' W 074°03'2 3.8
2017-Sep-15 00:30N 40°36' W 074°01'0 0.0
2017-Sep-15 00:00N 40°36' W 074°01'0 0.0
2017-Sep-14 23:30N 40°36' W 074°01'0 0.0
2017-Sep-14 23:00N 40°36' W 074°01'0 0.0
2017-Sep-14 22:30N 40°36' W 074°01'0 0.0
2017-Sep-14 22:00N 40°36' W 074°01'0 0.2
2017-Sep-14 21:30N 40°36' W 074°01'0 0.1
2017-Sep-14 21:00N 40°36' W 074°01'0 0.0
2017-Sep-14 20:30N 40°36' W 074°01'0 0.0
2017-Sep-14 20:00N 40°36' W 074°01'0 0.1
2017-Sep-14 19:30N 40°36' W 074°01'0 0.0
2017-Sep-14 19:00N 40°36' W 074°01'0 0.0
2017-Sep-14 18:29N 40°36' W 074°01'0 0.0
2017-Sep-14 17:59N 40°36' W 074°01'0 0.0
2017-Sep-14 17:30N 40°36' W 074°01'0 0.0
2017-Sep-14 16:59N 40°36' W 074°01'0 0.0
2017-Sep-14 16:30N 40°36' W 074°01'0 0.0
2017-Sep-14 16:00N 40°36' W 074°01'0 0.0
2017-Sep-14 15:31N 40°36' W 074°01'0 0.0
2017-Sep-14 15:00N 40°36' W 074°01'0 0.2
2017-Sep-14 14:30N 40°36' W 074°01'0 0.1
2017-Sep-14 13:59N 40°36' W 074°01'0 0.0
2017-Sep-14 13:30N 40°36' W 074°01'0 0.0
2017-Sep-14 13:00N 40°36' W 074°01'0 0.0
2017-Sep-14 12:30N 40°36' W 074°01'0 0.0
2017-Sep-14 12:00N 40°36' W 074°01'0 0.0
2017-Sep-14 11:31N 40°36' W 074°01'0 0.0
2017-Sep-14 11:00N 40°36' W 074°01'0 0.0
2017-Sep-14 10:30N 40°36' W 074°01'0 0.0
2017-Sep-14 10:01N 40°36' W 074°01'0 0.0
2017-Sep-14 09:30N 40°36' W 074°01'0 0.0
2017-Sep-14 09:00N 40°36' W 074°01'0 0.1
2017-Sep-14 08:30N 40°36' W 074°01'0 0.1
2017-Sep-14 08:00N 40°36' W 074°01'0 0.0
2017-Sep-14 07:30N 40°36' W 074°01'0 0.0
2017-Sep-14 07:00N 40°36' W 074°01'0 0.0
2017-Sep-14 06:30N 40°36' W 074°01'0 0.0
2017-Sep-14 06:00N 40°36' W 074°01'0 0.1
2017-Sep-14 05:30N 40°36' W 074°01'0 0.1
2017-Sep-14 05:00N 40°36' W 074°01'0 0.0
2017-Sep-14 04:30N 40°36' W 074°01'0 0.0
2017-Sep-14 04:00N 40°36' W 074°01'0 0.1
2017-Sep-14 03:30N 40°36' W 074°02'2 4.2
2017-Sep-14 03:01N 40°38' W 074°03'4 8.8
2017-Sep-14 02:30N 40°42' W 074°00'5 9.3
2017-Sep-14 01:56N 40°46' W 073°57'4 8.3
2017-Sep-14 01:29N 40°48' W 073°52'39 7.3
2017-Sep-13 20:10N 41°02' W 073°04'1 7.2
2017-Sep-13 19:58N 41°03' W 073°02'9 7.9
2017-Sep-13 18:47N 41°05' W 072°50'3 8.3
2017-Sep-13 18:29N 41°05' W 072°47'4 8.2
2017-Sep-13 18:00N 41°06' W 072°42'4 8.1
2017-Sep-13 17:30N 41°07' W 072°37'4 8.4
2017-Sep-13 17:00N 41°08' W 072°31'4 8.7
2017-Sep-13 16:30N 41°09' W 072°26'4 8.6
2017-Sep-13 15:59N 41°11' W 072°20'77 8.2
2017-Sep-13 06:33N 41°36' W 070°43'2 9.7
2017-Sep-13 06:22N 41°37' W 070°42'4 9.6
2017-Sep-13 06:00N 41°41' W 070°41'11 5.9
2017-Sep-13 04:04N 41°47' W 070°28'1 9.5
2017-Sep-13 04:00N 41°48' W 070°28'5 9.7
2017-Sep-13 03:30N 41°53' W 070°28'5 9.5
2017-Sep-13 03:00N 41°57' W 070°29'5 9.5
2017-Sep-13 02:29N 42°02' W 070°30'5 9.7
2017-Sep-13 01:59N 42°07' W 070°31'5 9.7
2017-Sep-13 01:30N 42°12' W 070°33'5 9.5
2017-Sep-13 01:00N 42°16' W 070°33'5 9.4
2017-Sep-13 00:30N 42°21' W 070°32'5 9.3
2017-Sep-13 00:00N 42°26' W 070°32'5 9.4
2017-Sep-12 23:30N 42°30' W 070°33'5 9.4
2017-Sep-12 23:00N 42°35' W 070°32'5 9.4
2017-Sep-12 22:30N 42°39' W 070°30'5 9.7
2017-Sep-12 21:59N 42°44' W 070°28'34 9.6
2017-Sep-12 18:26N 43°17' W 070°13'4 9.7
2017-Sep-12 17:59N 43°21' W 070°11'4 9.6
2017-Sep-12 17:31N 43°25' W 070°09'5 9.5
2017-Sep-12 17:00N 43°30' W 070°07'4 8.6
2017-Sep-12 16:30N 43°34' W 070°08'5 9.9
2017-Sep-12 16:00N 43°38' W 070°12'2 4.2
2017-Sep-12 15:30N 43°39' W 070°14'0 0.0
2017-Sep-12 15:00N 43°39' W 070°14'0 0.0
2017-Sep-12 14:30N 43°39' W 070°14'0 0.0
2017-Sep-12 14:00N 43°39' W 070°14'0 0.0
2017-Sep-12 13:30N 43°39' W 070°14'0 0.0
2017-Sep-12 13:00N 43°39' W 070°14'0 0.0
2017-Sep-12 12:30N 43°39' W 070°14'0 0.0
2017-Sep-12 12:00N 43°39' W 070°14'0 0.0
2017-Sep-12 11:30N 43°39' W 070°14'0 0.0
2017-Sep-12 11:00N 43°39' W 070°14'0 0.0
2017-Sep-12 10:31N 43°39' W 070°14'0 0.0
2017-Sep-12 10:00N 43°39' W 070°14'0 0.0
2017-Sep-12 09:30N 43°39' W 070°14'0 0.0
2017-Sep-12 09:01N 43°39' W 070°14'0 0.0
2017-Sep-12 08:30N 43°39' W 070°14'0 0.0
2017-Sep-12 08:00N 43°39' W 070°14'0 0.0
2017-Sep-12 07:30N 43°39' W 070°14'0 0.0
2017-Sep-12 07:00N 43°39' W 070°14'0 0.0
2017-Sep-12 06:30N 43°39' W 070°14'0 0.0
2017-Sep-12 06:00N 43°39' W 070°14'0 0.0
2017-Sep-12 05:30N 43°39' W 070°14'0 0.0
2017-Sep-12 05:01N 43°39' W 070°14'0 0.0
2017-Sep-12 04:30N 43°39' W 070°14'0 0.0
2017-Sep-12 04:00N 43°39' W 070°14'0 0.0
2017-Sep-12 03:31N 43°39' W 070°14'0 0.0
2017-Sep-12 03:01N 43°39' W 070°14'0 0.8
2017-Sep-12 02:30N 43°40' W 070°14'3 6.4
2017-Sep-12 02:01N 43°37' W 070°12'4 7.1
2017-Sep-12 01:30N 43°34' W 070°09'4 7.1
2017-Sep-12 01:01N 43°31' W 070°06'4 8.1
2017-Sep-12 00:30N 43°27' W 070°08'4 8.3
2017-Sep-11 23:59N 43°23' W 070°10'25 9.2
2017-Sep-11 21:14N 42°59' W 070°22'2 9.3
2017-Sep-11 21:00N 42°57' W 070°22'5 9.2
2017-Sep-11 20:30N 42°53' W 070°24'5 9.2
2017-Sep-11 20:01N 42°48' W 070°26'5 9.4
2017-Sep-11 19:31N 42°44' W 070°28'5 9.3
2017-Sep-11 19:00N 42°40' W 070°30'5 9.3
2017-Sep-11 18:30N 42°35' W 070°31'5 9.5
2017-Sep-11 18:00N 42°30' W 070°31'5 9.5
2017-Sep-11 17:30N 42°25' W 070°30'5 9.3
2017-Sep-11 17:00N 42°21' W 070°30'5 9.2
2017-Sep-11 16:30N 42°16' W 070°31'44 8.4
2017-Sep-11 11:15N 41°33' W 070°45'2 9.0
2017-Sep-11 10:59N 41°32' W 070°47'5 9.1
2017-Sep-11 10:28N 41°30' W 070°53'59 7.0
2017-Sep-11 02:07N 41°13' W 072°08'1 7.3
2017-Sep-11 02:00N 41°13' W 072°09'5 7.8
2017-Sep-11 01:22N 41°12' W 072°15'3 8.7
2017-Sep-11 01:00N 41°11' W 072°19'5 9.4
2017-Sep-11 00:30N 41°09' W 072°25'5 9.1
2017-Sep-11 00:00N 41°08' W 072°31'57 9.3
2017-Sep-10 17:50N 40°52' W 073°44'3 8.8
2017-Sep-10 17:28N 40°50' W 073°47'3 7.1
2017-Sep-10 17:00N 40°48' W 073°51'3 6.5
2017-Sep-10 16:30N 40°47' W 073°55'4 8.7
2017-Sep-10 16:00N 40°44' W 073°58'4 7.9
2017-Sep-10 15:30N 40°41' W 074°01'3 6.2
2017-Sep-10 15:00N 40°39' W 074°05'1 1.0
2017-Sep-10 14:01N 40°39' W 074°06'0 0.0
2017-Sep-10 13:30N 40°39' W 074°06'0 0.0
2017-Sep-10 13:00N 40°39' W 074°06'0 0.0
2017-Sep-10 12:30N 40°39' W 074°06'0 0.0
2017-Sep-10 12:00N 40°39' W 074°06'0 0.0
2017-Sep-10 11:30N 40°39' W 074°06'0 0.0
2017-Sep-10 11:00N 40°39' W 074°06'0 0.0
2017-Sep-10 10:30N 40°39' W 074°06'0 0.0
2017-Sep-10 10:00N 40°39' W 074°06'0 0.0
2017-Sep-10 09:30N 40°39' W 074°06'0 0.0
2017-Sep-10 09:00N 40°39' W 074°06'0 0.0
2017-Sep-10 08:30N 40°39' W 074°06'0 0.0
2017-Sep-10 08:00N 40°39' W 074°06'0 0.0
2017-Sep-10 07:30N 40°39' W 074°06'0 0.0
2017-Sep-10 07:00N 40°39' W 074°06'0 0.0
2017-Sep-10 06:30N 40°39' W 074°06'0 0.0
2017-Sep-10 06:00N 40°39' W 074°06'0 0.0
2017-Sep-10 05:30N 40°39' W 074°06'0 0.0
2017-Sep-10 05:00N 40°39' W 074°06'0 0.0
2017-Sep-10 04:30N 40°39' W 074°06'0 0.0
2017-Sep-10 04:00N 40°39' W 074°06'0 0.0
2017-Sep-10 03:30N 40°39' W 074°06'0 0.0
2017-Sep-10 03:01N 40°39' W 074°06'0 0.0
2017-Sep-10 02:30N 40°39' W 074°06'0 0.0
2017-Sep-10 02:00N 40°39' W 074°06'0 0.0
2017-Sep-10 01:31N 40°39' W 074°06'0 0.0
2017-Sep-10 01:00N 40°39' W 074°06'0 0.0
2017-Sep-10 00:30N 40°39' W 074°06'0 0.0
2017-Sep-10 00:00N 40°39' W 074°06'0 0.0
2017-Sep-09 23:30N 40°39' W 074°06'0 0.0
2017-Sep-09 23:00N 40°39' W 074°06'0 0.0
2017-Sep-09 22:31N 40°39' W 074°06'0 0.0
2017-Sep-09 22:00N 40°39' W 074°06'0 0.0
2017-Sep-09 21:31N 40°39' W 074°06'0 0.0
2017-Sep-09 21:00N 40°39' W 074°06'0 0.0
2017-Sep-09 20:30N 40°39' W 074°06'0 0.0
2017-Sep-09 20:00N 40°39' W 074°06'0 0.0
2017-Sep-09 19:30N 40°39' W 074°06'0 0.0
2017-Sep-09 19:00N 40°39' W 074°06'0 0.0
2017-Sep-09 18:30N 40°39' W 074°06'0 0.0
2017-Sep-09 18:00N 40°39' W 074°06'0 0.0
2017-Sep-09 17:30N 40°39' W 074°06'0 0.0
2017-Sep-09 17:00N 40°39' W 074°06'0 0.0
2017-Sep-09 16:30N 40°39' W 074°06'0 0.0
2017-Sep-09 16:00N 40°39' W 074°06'0 0.0
2017-Sep-09 15:30N 40°39' W 074°06'0 0.0
2017-Sep-09 15:01N 40°39' W 074°06'0 0.1
2017-Sep-09 14:30N 40°39' W 074°06'1 1.5
2017-Sep-09 14:00N 40°39' W 074°05'2 4.6
2017-Sep-09 13:30N 40°40' W 074°02'0 0.2
2017-Sep-09 13:00N 40°40' W 074°02'0 0.1
2017-Sep-09 12:30N 40°40' W 074°02'0 0.0
2017-Sep-09 12:00N 40°40' W 074°02'0 0.0
2017-Sep-09 11:30N 40°40' W 074°02'0 0.0
2017-Sep-09 11:00N 40°40' W 074°02'0 0.1
2017-Sep-09 10:31N 40°40' W 074°02'0 0.0
2017-Sep-09 10:00N 40°40' W 074°02'0 0.0
2017-Sep-09 09:30N 40°40' W 074°02'2 4.1
2017-Sep-09 09:00N 40°39' W 074°05'4 7.5
2017-Sep-09 08:30N 40°39' W 074°10'3 5.3
2017-Sep-09 08:00N 40°37' W 074°12'  
Track history (hours):
 
Tides and Currents Weather Stations Pressure Air Temp Water Temp Dewpoint Dewpoint Depression Visibility Wind Speed Wind Dir Waves Ship Positions

Evening Star

Owner: Tug Evening Star Corp, Melville, NY. More information available from US FCC via Universal Licensing System and Coast Guard Vessel Documentation Center.

Last reported at 2017-Sep-18 06:37 UTC. Time now 2017-Sep-21 05:04 UTC.
Position N 43°21' W 070°10'.

Length 34 m; draft 5.5 m.

Type: Towing. MMSI: 366834000.

Date/timePositionNaut miles runAvg speedWind from/ knotsBaromVisibWave heightAir tempDewpointWater temp
2017-Sep-18 06:37N 43°21' W 070°10'19 9.0
2017-Sep-18 04:29N 43°03' W 070°19'5 9.7
2017-Sep-18 03:58N 42°59' W 070°22'510.0
2017-Sep-18 03:30N 42°54' W 070°23'5 9.9
2017-Sep-18 03:00N 42°49' W 070°25'5 9.7
2017-Sep-18 02:30N 42°45' W 070°28'5 9.4
2017-Sep-18 02:01N 42°40' W 070°29'5 9.7
2017-Sep-18 01:31N 42°35' W 070°30'5 9.7
2017-Sep-18 01:01N 42°31' W 070°30'5 9.7
2017-Sep-18 00:30N 42°26' W 070°30'5 9.7
2017-Sep-18 00:00N 42°21' W 070°31'5 9.8
2017-Sep-17 23:30N 42°16' W 070°31'102 6.8
2017-Sep-17 08:38N 41°12' W 072°17'1 9.7
2017-Sep-17 08:30N 41°11' W 072°18'5 9.9
2017-Sep-17 08:00N 41°10' W 072°24'5 9.9
2017-Sep-17 07:30N 41°08' W 072°30'5210.2
2017-Sep-17 02:25N 40°56' W 073°37'6 9.4
2017-Sep-17 01:49N 40°53' W 073°43'5 9.0
2017-Sep-17 01:19N 40°49' W 073°47'2 6.4
2017-Sep-17 01:00N 40°48' W 073°49'4 7.9
2017-Sep-17 00:30N 40°48' W 073°54'3 6.9
2017-Sep-17 00:00N 40°45' W 073°58'4 8.1
2017-Sep-16 23:31N 40°42' W 074°00'5 9.2
2017-Sep-16 22:59N 40°39' W 074°05'4 9.5
2017-Sep-16 22:30N 40°39' W 074°11'2 3.2
2017-Sep-16 21:59N 40°37' W 074°12'5 5.4
2017-Sep-16 21:05N 40°33' W 074°15'0 1.1
2017-Sep-16 20:59N 40°33' W 074°15'0 0.0
2017-Sep-16 20:22N 40°33' W 074°15'0 0.0
2017-Sep-16 20:01N 40°33' W 074°15'0 0.0
2017-Sep-16 19:30N 40°33' W 074°15'0 0.0
2017-Sep-16 19:00N 40°33' W 074°15'0 0.0
2017-Sep-16 13:56N 40°33' W 074°15'0 0.0
2017-Sep-16 00:35N 40°33' W 074°15'0 0.0
2017-Sep-15 20:26N 40°33' W 074°15'0 0.1
2017-Sep-15 19:58N 40°33' W 074°15'0 0.9
2017-Sep-15 19:29N 40°33' W 074°15'3 1.5
2017-Sep-15 17:22N 40°35' W 074°12'2 4.8
2017-Sep-15 17:00N 40°37' W 074°12'3 7.0
2017-Sep-15 16:30N 40°39' W 074°08'1 1.6
2017-Sep-15 16:00N 40°39' W 074°07'0 0.1
2017-Sep-15 15:30N 40°39' W 074°07'0 0.1
2017-Sep-15 15:01N 40°39' W 074°07'0 0.0
2017-Sep-15 14:30N 40°39' W 074°07'0 0.0
2017-Sep-15 14:00N 40°39' W 074°07'0 0.0
2017-Sep-15 13:30N 40°39' W 074°07'0 0.0
2017-Sep-15 13:01N 40°39' W 074°07'0 0.0
2017-Sep-15 12:30N 40°39' W 074°07'0 0.0
2017-Sep-15 12:01N 40°39' W 074°07'0 0.0
2017-Sep-15 11:31N 40°39' W 074°07'0 0.0
2017-Sep-15 11:00N 40°39' W 074°07'0 0.0
2017-Sep-15 10:30N 40°39' W 074°07'0 0.0
2017-Sep-15 10:00N 40°39' W 074°07'0 0.0
2017-Sep-15 09:30N 40°39' W 074°07'0 0.0
2017-Sep-15 09:00N 40°39' W 074°07'0 0.0
2017-Sep-15 08:30N 40°39' W 074°07'0 0.0
2017-Sep-15 08:00N 40°39' W 074°07'0 0.0
2017-Sep-15 07:30N 40°39' W 074°07'0 0.0
2017-Sep-15 07:00N 40°39' W 074°07'0 0.0
2017-Sep-15 06:31N 40°39' W 074°07'0 0.0
2017-Sep-15 06:00N 40°39' W 074°07'0 0.0
2017-Sep-15 05:30N 40°39' W 074°07'0 0.0
2017-Sep-15 05:01N 40°39' W 074°07'0 0.1
2017-Sep-15 04:30N 40°39' W 074°07'0 0.7
2017-Sep-15 04:00N 40°39' W 074°07'5 3.7
2017-Sep-15 02:32N 40°35' W 074°12'0 4.1
2017-Sep-15 02:29N 40°36' W 074°12'3 6.7
2017-Sep-15 02:00N 40°39' W 074°11'3 6.9
2017-Sep-15 01:31N 40°39' W 074°07'3 6.4
2017-Sep-15 01:00N 40°37' W 074°03'2 3.8
2017-Sep-15 00:30N 40°36' W 074°01'0 0.0
2017-Sep-15 00:00N 40°36' W 074°01'0 0.0
2017-Sep-14 23:30N 40°36' W 074°01'0 0.0
2017-Sep-14 23:00N 40°36' W 074°01'0 0.0
2017-Sep-14 22:30N 40°36' W 074°01'0 0.0
2017-Sep-14 22:00N 40°36' W 074°01'0 0.2
2017-Sep-14 21:30N 40°36' W 074°01'0 0.1
2017-Sep-14 21:00N 40°36' W 074°01'0 0.0
2017-Sep-14 20:30N 40°36' W 074°01'0 0.0
2017-Sep-14 20:00N 40°36' W 074°01'0 0.1
2017-Sep-14 19:30N 40°36' W 074°01'0 0.0
2017-Sep-14 19:00N 40°36' W 074°01'0 0.0
2017-Sep-14 18:29N 40°36' W 074°01'0 0.0
2017-Sep-14 17:59N 40°36' W 074°01'0 0.0
2017-Sep-14 17:30N 40°36' W 074°01'0 0.0
2017-Sep-14 16:59N 40°36' W 074°01'0 0.0
2017-Sep-14 16:30N 40°36' W 074°01'0 0.0
2017-Sep-14 16:00N 40°36' W 074°01'0 0.0
2017-Sep-14 15:31N 40°36' W 074°01'0 0.0
2017-Sep-14 15:00N 40°36' W 074°01'0 0.2
2017-Sep-14 14:30N 40°36' W 074°01'0 0.1
2017-Sep-14 13:59N 40°36' W 074°01'0 0.0
2017-Sep-14 13:30N 40°36' W 074°01'0 0.0
2017-Sep-14 13:00N 40°36' W 074°01'0 0.0
2017-Sep-14 12:30N 40°36' W 074°01'0 0.0
2017-Sep-14 12:00N 40°36' W 074°01'0 0.0
2017-Sep-14 11:31N 40°36' W 074°01'0 0.0
2017-Sep-14 11:00N 40°36' W 074°01'0 0.0
2017-Sep-14 10:30N 40°36' W 074°01'0 0.0
2017-Sep-14 10:01N 40°36' W 074°01'0 0.0
2017-Sep-14 09:30N 40°36' W 074°01'0 0.0
2017-Sep-14 09:00N 40°36' W 074°01'0 0.1
2017-Sep-14 08:30N 40°36' W 074°01'0 0.1
2017-Sep-14 08:00N 40°36' W 074°01'0 0.0
2017-Sep-14 07:30N 40°36' W 074°01'0 0.0
2017-Sep-14 07:00N 40°36' W 074°01'0 0.0
2017-Sep-14 06:30N 40°36' W 074°01'0 0.0
2017-Sep-14 06:00N 40°36' W 074°01'0 0.1
2017-Sep-14 05:30N 40°36' W 074°01'0 0.1
2017-Sep-14 05:00N 40°36' W 074°01'0 0.0
2017-Sep-14 04:30N 40°36' W 074°01'0 0.0
2017-Sep-14 04:00N 40°36' W 074°01'0 0.1
2017-Sep-14 03:30N 40°36' W 074°02'2 4.2
2017-Sep-14 03:01N 40°38' W 074°03'4 8.8
2017-Sep-14 02:30N 40°42' W 074°00'5 9.3
2017-Sep-14 01:56N 40°46' W 073°57'4 8.3
2017-Sep-14 01:29N 40°48' W 073°52'39 7.3
2017-Sep-13 20:10N 41°02' W 073°04'1 7.2
2017-Sep-13 19:58N 41°03' W 073°02'9 7.9
2017-Sep-13 18:47N 41°05' W 072°50'3 8.3
2017-Sep-13 18:29N 41°05' W 072°47'4 8.2
2017-Sep-13 18:00N 41°06' W 072°42'4 8.1
2017-Sep-13 17:30N 41°07' W 072°37'4 8.4
2017-Sep-13 17:00N 41°08' W 072°31'4 8.7
2017-Sep-13 16:30N 41°09' W 072°26'4 8.6
2017-Sep-13 15:59N 41°11' W 072°20'77 8.2
2017-Sep-13 06:33N 41°36' W 070°43'2 9.7
2017-Sep-13 06:22N 41°37' W 070°42'4 9.6
2017-Sep-13 06:00N 41°41' W 070°41'11 5.9
2017-Sep-13 04:04N 41°47' W 070°28'1 9.5
2017-Sep-13 04:00N 41°48' W 070°28'5 9.7
2017-Sep-13 03:30N 41°53' W 070°28'5 9.5
2017-Sep-13 03:00N 41°57' W 070°29'5 9.5
2017-Sep-13 02:29N 42°02' W 070°30'5 9.7
2017-Sep-13 01:59N 42°07' W 070°31'5 9.7
2017-Sep-13 01:30N 42°12' W 070°33'5 9.5
2017-Sep-13 01:00N 42°16' W 070°33'5 9.4
2017-Sep-13 00:30N 42°21' W 070°32'5 9.3
2017-Sep-13 00:00N 42°26' W 070°32'5 9.4
2017-Sep-12 23:30N 42°30' W 070°33'5 9.4
2017-Sep-12 23:00N 42°35' W 070°32'5 9.4
2017-Sep-12 22:30N 42°39' W 070°30'5 9.7
2017-Sep-12 21:59N 42°44' W 070°28'34 9.6
2017-Sep-12 18:26N 43°17' W 070°13'4 9.7
2017-Sep-12 17:59N 43°21' W 070°11'4 9.6
2017-Sep-12 17:31N 43°25' W 070°09'5 9.5
2017-Sep-12 17:00N 43°30' W 070°07'4 8.6
2017-Sep-12 16:30N 43°34' W 070°08'5 9.9
2017-Sep-12 16:00N 43°38' W 070°12'2 4.2
2017-Sep-12 15:30N 43°39' W 070°14'0 0.0
2017-Sep-12 15:00N 43°39' W 070°14'0 0.0
2017-Sep-12 14:30N 43°39' W 070°14'0 0.0
2017-Sep-12 14:00N 43°39' W 070°14'0 0.0
2017-Sep-12 13:30N 43°39' W 070°14'0 0.0
2017-Sep-12 13:00N 43°39' W 070°14'0 0.0
2017-Sep-12 12:30N 43°39' W 070°14'0 0.0
2017-Sep-12 12:00N 43°39' W 070°14'0 0.0
2017-Sep-12 11:30N 43°39' W 070°14'0 0.0
2017-Sep-12 11:00N 43°39' W 070°14'0 0.0
2017-Sep-12 10:31N 43°39' W 070°14'0 0.0
2017-Sep-12 10:00N 43°39' W 070°14'0 0.0
2017-Sep-12 09:30N 43°39' W 070°14'0 0.0
2017-Sep-12 09:01N 43°39' W 070°14'0 0.0
2017-Sep-12 08:30N 43°39' W 070°14'0 0.0
2017-Sep-12 08:00N 43°39' W 070°14'0 0.0
2017-Sep-12 07:30N 43°39' W 070°14'0 0.0
2017-Sep-12 07:00N 43°39' W 070°14'0 0.0
2017-Sep-12 06:30N 43°39' W 070°14'0 0.0
2017-Sep-12 06:00N 43°39' W 070°14'0 0.0
2017-Sep-12 05:30N 43°39' W 070°14'0 0.0
2017-Sep-12 05:01N 43°39' W 070°14'0 0.0
2017-Sep-12 04:30N 43°39' W 070°14'0 0.0
2017-Sep-12 04:00N 43°39' W 070°14'0 0.0
2017-Sep-12 03:31N 43°39' W 070°14'0 0.0
2017-Sep-12 03:01N 43°39' W 070°14'0 0.8
2017-Sep-12 02:30N 43°40' W 070°14'3 6.4
2017-Sep-12 02:01N 43°37' W 070°12'4 7.1
2017-Sep-12 01:30N 43°34' W 070°09'4 7.1
2017-Sep-12 01:01N 43°31' W 070°06'4 8.1
2017-Sep-12 00:30N 43°27' W 070°08'4 8.3
2017-Sep-11 23:59N 43°23' W 070°10'25 9.2
2017-Sep-11 21:14N 42°59' W 070°22'2 9.3
2017-Sep-11 21:00N 42°57' W 070°22'5 9.2
2017-Sep-11 20:30N 42°53' W 070°24'5 9.2
2017-Sep-11 20:01N 42°48' W 070°26'5 9.4
2017-Sep-11 19:31N 42°44' W 070°28'5 9.3
2017-Sep-11 19:00N 42°40' W 070°30'5 9.3
2017-Sep-11 18:30N 42°35' W 070°31'5 9.5
2017-Sep-11 18:00N 42°30' W 070°31'5 9.5
2017-Sep-11 17:30N 42°25' W 070°30'5 9.3
2017-Sep-11 17:00N 42°21' W 070°30'5 9.2
2017-Sep-11 16:30N 42°16' W 070°31'44 8.4
2017-Sep-11 11:15N 41°33' W 070°45'2 9.0
2017-Sep-11 10:59N 41°32' W 070°47'5 9.1
2017-Sep-11 10:28N 41°30' W 070°53'59 7.0
2017-Sep-11 02:07N 41°13' W 072°08'1 7.3
2017-Sep-11 02:00N 41°13' W 072°09'5 7.8
2017-Sep-11 01:22N 41°12' W 072°15'3 8.7
2017-Sep-11 01:00N 41°11' W 072°19'5 9.4
2017-Sep-11 00:30N 41°09' W 072°25'5 9.1
2017-Sep-11 00:00N 41°08' W 072°31'57 9.3
2017-Sep-10 17:50N 40°52' W 073°44'3 8.8
2017-Sep-10 17:28N 40°50' W 073°47'3 7.1
2017-Sep-10 17:00N 40°48' W 073°51'3 6.5
2017-Sep-10 16:30N 40°47' W 073°55'4 8.7
2017-Sep-10 16:00N 40°44' W 073°58'4 7.9
2017-Sep-10 15:30N 40°41' W 074°01'3 6.2
2017-Sep-10 15:00N 40°39' W 074°05'1 1.0
2017-Sep-10 14:01N 40°39' W 074°06'0 0.0
2017-Sep-10 13:30N 40°39' W 074°06'0 0.0
2017-Sep-10 13:00N 40°39' W 074°06'0 0.0
2017-Sep-10 12:30N 40°39' W 074°06'0 0.0
2017-Sep-10 12:00N 40°39' W 074°06'0 0.0
2017-Sep-10 11:30N 40°39' W 074°06'0 0.0
2017-Sep-10 11:00N 40°39' W 074°06'0 0.0
2017-Sep-10 10:30N 40°39' W 074°06'0 0.0
2017-Sep-10 10:00N 40°39' W 074°06'0 0.0
2017-Sep-10 09:30N 40°39' W 074°06'0 0.0
2017-Sep-10 09:00N 40°39' W 074°06'0 0.0
2017-Sep-10 08:30N 40°39' W 074°06'0 0.0
2017-Sep-10 08:00N 40°39' W 074°06'0 0.0
2017-Sep-10 07:30N 40°39' W 074°06'0 0.0
2017-Sep-10 07:00N 40°39' W 074°06'0 0.0
2017-Sep-10 06:30N 40°39' W 074°06'0 0.0
2017-Sep-10 06:00N 40°39' W 074°06'0 0.0
2017-Sep-10 05:30N 40°39' W 074°06'0 0.0
2017-Sep-10 05:00N 40°39' W 074°06'0 0.0
2017-Sep-10 04:30N 40°39' W 074°06'0 0.0
2017-Sep-10 04:00N 40°39' W 074°06'0 0.0
2017-Sep-10 03:30N 40°39' W 074°06'0 0.0
2017-Sep-10 03:01N 40°39' W 074°06'0 0.0
2017-Sep-10 02:30N 40°39' W 074°06'0 0.0
2017-Sep-10 02:00N 40°39' W 074°06'0 0.0
2017-Sep-10 01:31N 40°39' W 074°06'0 0.0
2017-Sep-10 01:00N 40°39' W 074°06'0 0.0
2017-Sep-10 00:30N 40°39' W 074°06'0 0.0
2017-Sep-10 00:00N 40°39' W 074°06'0 0.0
2017-Sep-09 23:30N 40°39' W 074°06'0 0.0
2017-Sep-09 23:00N 40°39' W 074°06'0 0.0
2017-Sep-09 22:31N 40°39' W 074°06'0 0.0
2017-Sep-09 22:00N 40°39' W 074°06'0 0.0
2017-Sep-09 21:31N 40°39' W 074°06'0 0.0
2017-Sep-09 21:00N 40°39' W 074°06'0 0.0
2017-Sep-09 20:30N 40°39' W 074°06'0 0.0
2017-Sep-09 20:00N 40°39' W 074°06'0 0.0
2017-Sep-09 19:30N 40°39' W 074°06'0 0.0
2017-Sep-09 19:00N 40°39' W 074°06'0 0.0
2017-Sep-09 18:30N 40°39' W 074°06'0 0.0
2017-Sep-09 18:00N 40°39' W 074°06'0 0.0
2017-Sep-09 17:30N 40°39' W 074°06'0 0.0
2017-Sep-09 17:00N 40°39' W 074°06'0 0.0
2017-Sep-09 16:30N 40°39' W 074°06'0 0.0
2017-Sep-09 16:00N 40°39' W 074°06'0 0.0
2017-Sep-09 15:30N 40°39' W 074°06'0 0.0
2017-Sep-09 15:01N 40°39' W 074°06'0 0.1
2017-Sep-09 14:30N 40°39' W 074°06'1 1.5
2017-Sep-09 14:00N 40°39' W 074°05'2 4.6
2017-Sep-09 13:30N 40°40' W 074°02'0 0.2
2017-Sep-09 13:00N 40°40' W 074°02'0 0.1
2017-Sep-09 12:30N 40°40' W 074°02'0 0.0
2017-Sep-09 12:00N 40°40' W 074°02'0 0.0
2017-Sep-09 11:30N 40°40' W 074°02'0 0.0
2017-Sep-09 11:00N 40°40' W 074°02'0 0.1
2017-Sep-09 10:31N 40°40' W 074°02'0 0.0
2017-Sep-09 10:00N 40°40' W 074°02'0 0.0
2017-Sep-09 09:30N 40°40' W 074°02'2 4.1
2017-Sep-09 09:00N 40°39' W 074°05'4 7.5
2017-Sep-09 08:30N 40°39' W 074°10'3 5.3
2017-Sep-09 08:00N 40°37' W 074°12'  

Dump ship's entire track history